Time;durP1;ratioP1;P1;durP2;ratioP2;P2;SDS_P1;SDS_P2;PMS_P1;PMS_P2;Temp;Humidity;BMP_temperature;BMP_pressure;BME280_temperature;BME280_humidity;BME280_pressure;Samples;Min_cycle;Max_cycle;Signal;HPM_P1;HPM_P2
2021/07/29 00:01:00;;;;;;;8.15;5.20;;;;;;;19.51;76.90;100319.72;5032867;28;20149;-79
2021/07/29 00:03:27;;;;;;;8.10;4.43;;;;;;;19.51;76.62;100314.38;5013163;28;20573;-76
2021/07/29 00:05:55;;;;;;;10.73;5.28;;;;;;;19.44;77.21;100318.66;5027208;28;20136;-79
2021/07/29 00:08:22;;;;;;;4.90;4.40;;;;;;;19.54;76.84;100314.03;5046669;28;20072;-80
2021/07/29 00:10:49;;;;;;;7.15;4.65;;;;;;;19.52;76.86;100318.72;5016095;28;20136;-78
2021/07/29 00:13:17;;;;;;;7.80;5.22;;;;;;;19.52;76.48;100316.03;5028458;28;20049;-81
2021/07/29 00:15:44;;;;;;;6.05;5.07;;;;;;;19.51;76.87;100316.22;5047596;28;20119;-79
2021/07/29 00:20:39;;;;;;;7.20;5.03;;;;;;;19.48;76.90;100315.50;5017659;28;20063;-85
2021/07/29 00:23:06;;;;;;;5.75;4.93;;;;;;;19.37;77.79;100309.59;5008670;28;20051;-81
2021/07/29 00:25:34;;;;;;;6.30;5.15;;;;;;;19.30;78.17;100306.69;5020172;28;20485;-77
2021/07/29 00:28:01;;;;;;;7.15;5.40;;;;;;;19.20;78.36;100303.28;5023904;28;20432;-78
2021/07/29 00:30:28;;;;;;;4.85;4.40;;;;;;;19.08;78.67;100305.34;5053841;28;20064;-79
2021/07/29 00:32:56;;;;;;;8.68;5.18;;;;;;;18.96;80.15;100301.25;5019336;28;20524;-79
2021/07/29 00:35:23;;;;;;;7.43;5.25;;;;;;;18.88;80.55;100290.50;5016745;28;20474;-82
2021/07/29 00:37:53;;;;;;;6.68;5.20;;;;;;;18.80;81.15;100298.41;5023982;28;20132;-82
2021/07/29 00:40:20;;;;;;;4.85;4.43;;;;;;;18.73;81.75;100298.16;5025959;28;20049;-79
2021/07/29 00:42:48;;;;;;;9.30;4.80;;;;;;;18.76;81.89;100297.88;5029667;28;20128;-79
2021/07/29 00:45:16;;;;;;;9.48;5.07;;;;;;;18.79;81.88;100299.41;5002702;28;20508;-79
2021/07/29 00:47:45;;;;;;;6.65;5.65;;;;;;;18.71;81.93;100306.31;5024975;28;20308;-78
2021/07/29 00:50:33;;;;;;;5.75;5.00;;;;;;;18.65;82.45;100306.91;5030612;28;20048;-79
2021/07/29 00:53:00;;;;;;;7.57;5.47;;;;;;;18.65;82.62;100298.91;5013966;28;20457;-77
2021/07/29 00:55:27;;;;;;;5.80;5.15;;;;;;;18.61;82.55;100310.84;5050044;28;20057;-82
2021/07/29 00:57:54;;;;;;;10.40;5.07;;;;;;;18.62;83.04;100301.03;5026485;28;20073;-81
2021/07/29 01:00:22;;;;;;;6.15;5.55;;;;;;;18.65;83.34;100301.56;5017468;28;20076;-82
2021/07/29 01:02:49;;;;;;;6.50;5.68;;;;;;;18.60;83.36;100303.84;5044734;28;20049;-79
2021/07/29 01:05:16;;;;;;;7.10;4.82;;;;;;;18.62;83.59;100307.19;5030871;28;20131;-77
2021/07/29 01:07:44;;;;;;;7.88;5.20;;;;;;;18.66;83.11;100297.91;5024326;28;20072;-82
2021/07/29 01:10:11;;;;;;;10.00;6.07;;;;;;;18.65;83.09;100296.22;5027350;28;20215;-80
2021/07/29 01:12:38;;;;;;;6.18;4.13;;;;;;;18.64;82.93;100293.69;5015953;28;20076;-81
2021/07/29 01:15:06;;;;;;;6.43;4.85;;;;;;;18.62;83.43;100288.53;4996969;28;20163;-77
2021/07/29 01:17:33;;;;;;;6.72;5.00;;;;;;;18.51;84.17;100294.09;5049622;28;20045;-80
2021/07/29 01:20:01;;;;;;;8.27;4.90;;;;;;;18.51;84.44;100302.06;5024234;28;20496;-79
2021/07/29 01:22:38;;;;;;;6.95;5.10;;;;;;;18.45;84.69;100295.50;5022560;28;20052;-79
2021/07/29 01:25:06;;;;;;;8.38;5.30;;;;;;;18.58;84.55;100292.47;5068744;28;20132;-80
2021/07/29 01:27:34;;;;;;;6.03;4.80;;;;;;;18.59;84.33;100293.31;5013500;28;20048;-80
2021/07/29 01:30:02;;;;;;;5.90;4.85;;;;;;;18.68;83.74;100290.56;5028143;28;20162;-77
2021/07/29 01:32:30;;;;;;;6.43;5.47;;;;;;;18.60;84.14;100287.84;5010742;28;20061;-80
2021/07/29 01:34:57;;;;;;;11.23;5.05;;;;;;;18.61;83.73;100283.34;5044923;28;20136;-80
2021/07/29 01:37:25;;;;;;;10.75;5.25;;;;;;;18.47;84.36;100282.03;5020480;28;20358;-79
2021/07/29 01:39:53;;;;;;;7.53;4.78;;;;;;;18.55;84.75;100279.47;5029966;28;20133;-79
2021/07/29 01:42:21;;;;;;;7.35;5.05;;;;;;;18.48;84.94;100278.38;5026789;28;20136;-80
2021/07/29 01:44:49;;;;;;;5.63;4.95;;;;;;;18.38;85.25;100277.59;5041577;28;20041;-79
2021/07/29 01:47:16;;;;;;;6.78;5.10;;;;;;;18.20;86.09;100270.41;5048623;28;20077;-80
2021/07/29 01:49:43;;;;;;;7.07;5.30;;;;;;;18.02;87.28;100274.84;5033968;28;20096;-82
2021/07/29 01:52:11;;;;;;;8.50;5.60;;;;;;;17.98;87.38;100273.44;5035282;28;20143;-79
2021/07/29 01:54:38;;;;;;;5.50;4.95;;;;;;;17.89;88.41;100269.00;5029835;28;20136;-79
2021/07/29 01:57:06;;;;;;;8.25;5.32;;;;;;;17.96;88.67;100264.75;5033417;28;20047;-77
2021/07/29 01:59:35;;;;;;;6.93;5.45;;;;;;;17.73;89.23;100261.59;5010723;28;20072;-78
2021/07/29 02:02:03;;;;;;;9.60;5.55;;;;;;;17.77;89.92;100267.50;4994666;28;20079;-79
2021/07/29 02:04:31;;;;;;;6.07;4.63;;;;;;;17.83;89.99;100273.09;5028023;28;20136;-79
2021/07/29 02:06:58;;;;;;;6.95;5.38;;;;;;;17.93;89.38;100281.03;5003266;28;20144;-78
2021/07/29 02:09:25;;;;;;;7.82;5.18;;;;;;;17.87;89.23;100286.94;5012328;28;20087;-78
2021/07/29 02:11:52;;;;;;;9.05;5.93;;;;;;;17.68;90.59;100275.31;5049082;28;20102;-81
2021/07/29 02:14:21;;;;;;;8.30;5.95;;;;;;;17.68;90.95;100283.31;5031130;28;20037;-79
2021/07/29 02:16:49;;;;;;;9.10;5.13;;;;;;;17.78;90.21;100290.47;5020692;28;20084;-79
2021/07/29 02:19:17;;;;;;;8.38;5.22;;;;;;;17.58;91.30;100279.00;5021001;28;20495;-82
2021/07/29 02:21:44;;;;;;;6.18;5.18;;;;;;;17.36;92.47;100280.16;5004858;28;21303;-81
2021/07/29 02:24:12;;;;;;;7.63;5.47;;;;;;;17.29;93.65;100284.38;5037848;28;20060;-79
2021/07/29 02:26:39;;;;;;;8.82;5.47;;;;;;;17.22;94.03;100284.09;5022916;28;20084;-80
2021/07/29 02:29:06;;;;;;;6.43;5.15;;;;;;;17.15;94.62;100281.16;5004636;28;20147;-78
2021/07/29 02:31:33;;;;;;;16.20;6.20;;;;;;;17.14;95.10;100284.81;5045110;28;20492;-83
2021/07/29 02:34:01;;;;;;;7.43;5.97;;;;;;;17.36;94.54;100280.16;5022647;28;20054;-78
2021/07/29 02:36:28;;;;;;;6.93;5.68;;;;;;;17.44;93.73;100269.66;5016949;28;20053;-78
2021/07/29 02:38:55;;;;;;;11.10;6.18;;;;;;;17.46;93.16;100276.50;5022129;28;20394;-80
2021/07/29 02:41:23;;;;;;;9.80;5.80;;;;;;;17.22;94.80;100278.78;5022532;28;20504;-82
2021/07/29 02:43:50;;;;;;;6.35;5.18;;;;;;;17.13;95.42;100279.63;5019450;28;20121;-78
2021/07/29 02:46:17;;;;;;;6.13;4.93;;;;;;;17.10;95.74;100275.44;5006247;28;20137;-83
2021/07/29 02:48:44;;;;;;;6.05;5.45;;;;;;;17.23;95.12;100285.78;5030565;28;20233;-79
2021/07/29 02:51:12;;;;;;;5.95;5.35;;;;;;;17.26;95.50;100288.16;5016270;28;20148;-79
2021/07/29 02:53:39;;;;;;;7.00;5.70;;;;;;;17.33;94.50;100285.78;5005058;28;20108;-77
2021/07/29 02:56:08;;;;;;;8.55;5.43;;;;;;;17.32;94.34;100284.94;5045978;28;20057;-80
2021/07/29 02:58:36;;;;;;;7.13;5.03;;;;;;;17.28;94.69;100283.53;5046775;28;20091;-78
2021/07/29 03:01:03;;;;;;;9.68;6.57;;;;;;;17.17;96.00;100286.34;5029401;28;20052;-84
2021/07/29 03:03:31;;;;;;;7.43;5.90;;;;;;;17.23;95.19;100279.63;5046730;28;20044;-79
2021/07/29 03:05:58;;;;;;;6.15;5.40;;;;;;;17.27;94.87;100291.66;5029995;28;20048;-81
2021/07/29 03:08:25;;;;;;;9.02;6.05;;;;;;;17.27;95.14;100291.66;5028100;28;20513;-78
2021/07/29 03:10:53;;;;;;;7.38;5.00;;;;;;;17.18;95.62;100288.88;5044821;28;20182;-83
2021/07/29 03:13:27;;;;;;;7.93;5.68;;;;;;;17.05;96.52;100288.31;5046411;28;20136;-82
2021/07/29 03:15:54;;;;;;;9.10;5.38;;;;;;;16.92;96.91;100296.56;5021615;28;20125;-80
2021/07/29 03:18:22;;;;;;;8.05;5.60;;;;;;;16.84;97.70;100292.91;4995692;28;20050;-80
2021/07/29 03:20:49;;;;;;;6.95;5.65;;;;;;;16.89;97.77;100293.38;5007581;28;20069;-79
2021/07/29 03:23:16;;;;;;;6.88;5.30;;;;;;;16.93;98.27;100292.94;4998874;28;20126;-78
2021/07/29 03:25:49;;;;;;;7.60;4.95;;;;;;;17.08;96.88;100300.50;5044446;28;20144;-79
2021/07/29 03:28:18;;;;;;;12.40;5.53;;;;;;;17.35;94.71;100295.28;5021732;28;20053;-79
2021/07/29 03:30:46;;;;;;;6.68;5.20;;;;;;;17.40;94.53;100297.53;5032048;28;21004;-80
2021/07/29 03:33:13;;;;;;;8.57;5.32;;;;;;;17.31;94.79;100295.72;5007660;28;20470;-80
2021/07/29 03:35:41;;;;;;;6.72;4.60;;;;;;;17.13;95.91;100293.78;5031910;28;20088;-79
2021/07/29 03:38:08;;;;;;;5.65;4.35;;;;;;;17.21;95.57;100301.91;5004963;28;20151;-79
2021/07/29 03:40:36;;;;;;;5.50;4.50;;;;;;;17.29;95.51;100292.34;5016223;28;20037;-80
2021/07/29 03:43:04;;;;;;;5.18;4.68;;;;;;;17.26;94.95;100290.00;5016441;28;20052;-81
2021/07/29 03:45:32;;;;;;;6.70;4.53;;;;;;;17.21;94.79;100304.56;5032846;28;20372;-79
2021/07/29 03:48:00;;;;;;;7.25;4.63;;;;;;;17.20;94.91;100310.88;5026549;28;20055;-80
2021/07/29 03:50:28;;;;;;;6.22;4.43;;;;;;;17.48;93.73;100305.66;5006651;28;20077;-83
2021/07/29 03:52:55;;;;;;;5.53;4.68;;;;;;;17.40;93.92;100308.19;5007495;28;20112;-80
2021/07/29 03:55:22;;;;;;;6.00;4.40;;;;;;;17.39;93.77;100311.81;5024608;28;20033;-80
2021/07/29 03:57:50;;;;;;;10.20;5.85;;;;;;;17.36;93.84;100302.28;5019976;28;20064;-84
2021/07/29 04:00:17;;;;;;;5.70;4.70;;;;;;;17.40;93.61;100302.84;5014884;28;20115;-79
2021/07/29 04:02:44;;;;;;;5.43;4.35;;;;;;;17.55;92.73;100306.75;5027059;28;20057;-79
2021/07/29 04:05:12;;;;;;;6.90;4.60;;;;;;;17.74;91.32;100315.69;5049818;28;20139;-81
2021/07/29 04:07:39;;;;;;;8.00;4.53;;;;;;;18.00;89.10;100314.06;5013159;28;20045;-79
2021/07/29 04:10:06;;;;;;;5.55;4.65;;;;;;;18.11;88.66;100311.25;5020957;28;20137;-80
2021/07/29 04:12:34;;;;;;;5.97;4.05;;;;;;;18.28;87.33;100314.09;5014867;28;20188;-80
2021/07/29 04:15:01;;;;;;;6.80;3.42;;;;;;;18.46;85.65;100313.19;5025346;28;20064;-78
2021/07/29 04:17:28;;;;;;;7.18;4.25;;;;;;;18.46;85.56;100312.31;5045603;28;20056;-79
2021/07/29 04:19:58;;;;;;;5.13;4.30;;;;;;;18.59;85.08;100312.81;5009444;28;20046;-80
2021/07/29 04:22:26;;;;;;;6.22;3.80;;;;;;;18.77;84.13;100310.19;5008036;28;20487;-80
2021/07/29 04:24:58;;;;;;;4.30;3.67;;;;;;;18.89;82.98;100300.16;5015240;28;20049;-80
2021/07/29 04:27:25;;;;;;;5.43;3.60;;;;;;;19.12;81.09;100305.88;5030234;28;20049;-79
2021/07/29 04:29:53;;;;;;;8.55;4.18;;;;;;;19.10;81.02;100311.38;5028892;28;20092;-81
2021/07/29 04:32:20;;;;;;;5.55;3.25;;;;;;;18.96;81.07;100314.59;5049885;28;21252;-81
2021/07/29 04:34:51;;;;;;;6.40;3.90;;;;;;;18.77;82.60;100312.03;5017190;28;20049;-80
2021/07/29 04:37:18;;;;;;;6.93;3.67;;;;;;;18.91;81.97;100323.03;5048943;28;20049;-79
2021/07/29 04:39:45;;;;;;;7.40;4.07;;;;;;;18.90;81.57;100331.16;5030971;28;20081;-80
2021/07/29 04:42:13;;;;;;;6.10;3.97;;;;;;;18.96;81.20;100327.91;5048434;28;20205;-79
2021/07/29 04:44:40;;;;;;;4.57;3.42;;;;;;;18.97;80.76;100319.75;5046318;28;20061;-78
2021/07/29 04:47:07;;;;;;;7.63;3.67;;;;;;;19.17;79.93;100322.25;5026877;28;20400;-81
2021/07/29 04:49:34;;;;;;;5.35;3.10;;;;;;;19.51;78.22;100326.88;5012249;28;20084;-80
2021/07/29 04:52:03;;;;;;;5.63;3.40;;;;;;;19.81;76.29;100325.59;5029126;28;20051;-80
2021/07/29 04:54:30;;;;;;;5.80;3.78;;;;;;;20.36;74.18;100331.44;5007442;28;20075;-80
2021/07/29 04:56:57;;;;;;;6.28;3.70;;;;;;;20.62;71.71;100333.22;5050092;28;20204;-80
2021/07/29 04:59:25;;;;;;;4.78;3.70;;;;;;;20.43;71.87;100328.94;5024448;28;20211;-80
2021/07/29 05:01:52;;;;;;;7.22;3.63;;;;;;;20.36;71.52;100331.44;5031627;28;20538;-81
2021/07/29 05:04:19;;;;;;;5.68;3.78;;;;;;;21.51;67.96;100329.84;5010165;28;20064;-82
2021/07/29 05:06:46;;;;;;;4.53;3.15;;;;;;;23.61;60.64;100327.38;5015064;28;20132;-82
2021/07/29 05:09:14;;;;;;;4.65;3.55;;;;;;;23.94;57.92;100333.28;5010336;28;20148;-80
2021/07/29 05:11:41;;;;;;;5.18;3.08;;;;;;;24.23;55.90;100338.69;5025927;28;20060;-82
2021/07/29 05:14:08;;;;;;;6.15;3.15;;;;;;;23.94;57.58;100338.66;5032761;28;20076;-78
2021/07/29 05:16:36;;;;;;;3.78;3.22;;;;;;;25.19;53.52;100334.03;5045660;28;20041;-80
2021/07/29 05:19:03;;;;;;;3.80;3.22;;;;;;;26.06;51.00;100324.78;5032218;28;20045;-78
2021/07/29 05:21:30;;;;;;;6.03;2.90;;;;;;;27.00;47.46;100324.97;5007625;28;20095;-84
2021/07/29 05:23:58;;;;;;;8.82;3.15;;;;;;;27.28;46.61;100321.28;5050234;28;20045;-80
2021/07/29 05:26:25;;;;;;;6.78;2.97;;;;;;;27.84;44.96;100317.38;5032727;28;20098;-79
2021/07/29 05:28:53;;;;;;;7.30;3.08;;;;;;;27.82;44.42;100314.84;5025970;28;20094;-81
2021/07/29 05:31:20;;;;;;;5.00;2.65;;;;;;;29.67;40.61;100313.06;5050882;28;20067;-80
2021/07/29 05:33:47;;;;;;;7.13;3.53;;;;;;;29.25;40.90;100323.63;5013094;28;20140;-85
2021/07/29 05:36:14;;;;;;;6.82;2.90;;;;;;;28.48;43.09;100322.81;5025690;28;20111;-80
2021/07/29 05:38:42;;;;;;;6.60;3.47;;;;;;;29.87;39.09;100318.31;5021078;28;20068;-79
2021/07/29 05:41:09;;;;;;;8.90;3.13;;;;;;;30.30;37.96;100322.06;5023249;28;20045;-81
2021/07/29 05:43:37;;;;;;;6.60;3.00;;;;;;;31.64;35.83;100317.22;5030016;28;20041;-81
2021/07/29 05:46:11;;;;;;;3.03;2.53;;;;;;;31.57;35.54;100322.78;5041178;28;20076;-84
2021/07/29 05:48:39;;;;;;;;;;;;;;;30.46;37.80;100321.44;5007314;28;20319;-79
2021/07/29 05:51:06;;;;;;;4.50;2.63;;;;;;;30.06;38.35;100321.88;5022379;28;19932;-80
2021/07/29 05:53:33;;;;;;;4.50;3.22;;;;;;;31.39;35.88;100314.72;5009972;28;20164;-79
2021/07/29 05:56:01;;;;;;;2.95;2.63;;;;;;;32.05;34.15;100321.69;5029345;28;20152;-79
2021/07/29 05:58:28;;;;;;;5.35;3.15;;;;;;;32.42;33.11;100318.69;5023242;28;20075;-78
2021/07/29 06:00:56;;;;;;;7.00;2.72;;;;;;;33.19;32.51;100318.25;5028169;28;20129;-80
2021/07/29 06:03:23;;;;;;;4.95;2.70;;;;;;;33.08;32.53;100322.69;4981528;28;20443;-81
2021/07/29 06:05:55;;;;;;;5.43;3.25;;;;;;;32.15;33.88;100313.78;4999955;28;20152;-79
2021/07/29 06:08:22;;;;;;;4.95;2.55;;;;;;;32.78;32.69;100317.47;5041617;28;20052;-79
2021/07/29 06:10:49;;;;;;;7.43;3.08;;;;;;;32.17;33.52;100310.81;5049776;28;20045;-79
2021/07/29 06:13:16;;;;;;;4.35;2.90;;;;;;;32.47;33.03;100313.38;5026451;28;20049;-80
2021/07/29 06:15:43;;;;;;;8.15;3.42;;;;;;;32.57;33.13;100321.72;5005220;28;20085;-83
2021/07/29 06:18:12;;;;;;;11.90;3.20;;;;;;;33.43;31.55;100308.00;5021948;28;20103;-79
2021/07/29 06:20:41;;;;;;;4.57;2.80;;;;;;;33.78;31.42;100306.94;5042995;28;20067;-79
2021/07/29 06:23:08;;;;;;;4.53;3.40;;;;;;;33.24;31.60;100308.25;5045276;28;20156;-80
2021/07/29 06:25:39;;;;;;;8.93;3.55;;;;;;;34.49;30.00;100302.41;5043480;28;20504;-80
2021/07/29 06:28:12;;;;;;;4.60;2.95;;;;;;;34.24;30.03;100297.47;5010116;28;20037;-79
2021/07/29 06:30:42;;;;;;;4.40;3.10;;;;;;;34.19;29.56;100300.94;5042589;28;20124;-78
2021/07/29 06:33:09;;;;;;;6.05;3.85;;;;;;;34.64;29.34;100302.59;5027076;28;20069;-80
2021/07/29 06:35:38;;;;;;;5.32;3.15;;;;;;;35.07;28.48;100300.84;5029711;28;20152;-84
2021/07/29 06:38:06;;;;;;;5.82;3.10;;;;;;;34.35;29.57;100299.22;5029316;28;20106;-78
2021/07/29 06:40:33;;;;;;;11.90;3.45;;;;;;;34.45;29.64;100309.44;5026853;28;20461;-78
2021/07/29 06:43:01;;;;;;;6.95;3.70;;;;;;;33.56;30.79;100309.59;5011556;28;20053;-80
2021/07/29 06:45:28;;;;;;;4.38;3.13;;;;;;;34.57;28.96;100312.06;5032438;28;20057;-80
2021/07/29 06:47:56;;;;;;;4.38;2.75;;;;;;;34.58;29.11;100308.25;5028452;28;20111;-79
2021/07/29 06:50:23;;;;;;;4.70;2.83;;;;;;;34.12;29.63;100313.13;5015554;28;20369;-80
2021/07/29 06:52:50;;;;;;;9.90;4.38;;;;;;;34.64;28.69;100310.81;5004638;28;20042;-80
2021/07/29 06:55:23;;;;;;;5.53;3.15;;;;;;;33.51;30.08;100308.44;5016512;28;20207;-82
2021/07/29 06:57:50;;;;;;;5.68;3.00;;;;;;;34.42;28.91;100305.31;5039463;28;20064;-81
2021/07/29 07:00:20;;;;;;;5.63;2.80;;;;;;;34.85;27.33;100302.78;5032373;28;20564;-80
2021/07/29 07:02:47;;;;;;;5.03;3.45;;;;;;;35.28;27.19;100303.75;5045059;28;20412;-82
2021/07/29 07:05:14;;;;;;;5.28;3.58;;;;;;;34.75;28.30;100304.34;5023392;28;20508;-78
2021/07/29 07:07:42;;;;;;;4.97;2.85;;;;;;;34.43;28.57;100306.97;5045343;28;20124;-79
2021/07/29 07:10:09;;;;;;;3.22;2.72;;;;;;;35.17;27.07;100303.69;5010480;28;20049;-78
2021/07/29 07:12:36;;;;;;;4.55;3.28;;;;;;;34.95;26.52;100309.19;5024501;28;20130;-78
2021/07/29 07:15:04;;;;;;;3.08;2.80;;;;;;;36.04;25.41;100303.50;5027257;28;20163;-79
2021/07/29 07:17:31;;;;;;;6.40;3.13;;;;;;;35.50;25.97;100299.84;5021426;28;20064;-79
2021/07/29 07:20:03;;;;;;;6.45;2.67;;;;;;;34.79;26.27;100290.97;5048174;28;20128;-79
2021/07/29 07:22:30;;;;;;;5.63;2.85;;;;;;;35.54;25.71;100297.41;5006870;28;20045;-79
2021/07/29 07:25:00;;;;;;;4.18;2.60;;;;;;;35.38;25.63;100299.19;5028096;28;20478;-80
2021/07/29 07:27:27;;;;;;;6.28;3.17;;;;;;;35.42;25.24;100305.78;5027976;28;20056;-80
2021/07/29 07:29:55;;;;;;;7.68;2.80;;;;;;;35.56;25.01;100297.97;5015362;28;20094;-80
2021/07/29 07:32:22;;;;;;;4.47;2.67;;;;;;;34.70;26.77;100296.09;5045012;28;20091;-82
2021/07/29 07:34:49;;;;;;;5.47;2.55;;;;;;;36.19;24.71;100298.06;5037543;28;20057;-81
2021/07/29 07:37:20;;;;;;;4.63;2.78;;;;;;;36.57;23.53;100283.16;5017198;28;20117;-80
2021/07/29 07:39:48;;;;;;;4.75;2.90;;;;;;;36.53;23.99;100279.28;5012861;28;20049;-84
2021/07/29 07:42:15;;;;;;;4.68;2.63;;;;;;;36.72;23.98;100288.66;5040175;28;20049;-81
2021/07/29 07:44:43;;;;;;;5.65;3.05;;;;;;;36.49;23.92;100279.00;4995474;28;20041;-80
2021/07/29 07:47:10;;;;;;;5.50;2.65;;;;;;;35.94;23.56;100276.84;5040505;28;20043;-79
2021/07/29 07:49:39;;;;;;;4.53;2.50;;;;;;;35.74;23.66;100278.34;5011064;28;20084;-81
2021/07/29 07:52:10;;;;;;;7.57;3.10;;;;;;;36.37;22.88;100272.09;5044746;28;20128;-79
2021/07/29 07:54:38;;;;;;;11.30;3.25;;;;;;;35.62;23.68;100275.03;5014563;28;20082;-80
2021/07/29 07:57:06;;;;;;;8.20;3.03;;;;;;;34.81;24.64;100277.88;5042484;28;20033;-82
2021/07/29 07:59:40;;;;;;;12.07;2.55;;;;;;;36.59;23.13;100280.94;5011387;28;20045;-81
2021/07/29 08:02:07;;;;;;;10.20;2.90;;;;;;;36.18;23.33;100275.31;5019432;28;20484;-82
2021/07/29 08:04:35;;;;;;;14.48;3.90;;;;;;;34.32;24.83;100272.41;5016215;28;20052;-80
2021/07/29 08:07:02;;;;;;;9.93;2.75;;;;;;;36.36;22.86;100267.69;5031392;28;20044;-83
2021/07/29 08:09:32;;;;;;;5.05;2.55;;;;;;;36.06;23.41;100271.16;5033829;28;20504;-80
2021/07/29 08:12:00;;;;;;;2.53;2.25;;;;;;;34.84;25.23;100282.81;4999277;28;20049;-80
2021/07/29 08:14:27;;;;;;;4.63;2.45;;;;;;;31.17;29.36;100265.47;5045959;28;20133;-78
2021/07/29 08:16:54;;;;;;;9.02;2.58;;;;;;;26.94;36.05;100268.25;5029689;28;20059;-81
2021/07/29 08:19:25;;;;;;;16.70;2.92;;;;;;;27.85;35.17;100264.91;5013169;28;20065;-78
2021/07/29 08:21:55;;;;;;;8.05;2.45;;;;;;;27.39;36.11;100253.09;5027465;28;20513;-80
2021/07/29 08:24:23;;;;;;;4.03;2.35;;;;;;;26.81;37.29;100266.34;5029173;28;20037;-79
2021/07/29 08:26:50;;;;;;;6.10;2.40;;;;;;;26.84;37.92;100263.25;5028789;28;20139;-81
2021/07/29 08:29:17;;;;;;;12.27;2.60;;;;;;;26.75;37.80;100259.06;5025476;28;20149;-79
2021/07/29 08:31:44;;;;;;;4.65;2.13;;;;;;;26.34;38.98;100261.81;5029044;28;20152;-79
2021/07/29 08:34:12;;;;;;;5.63;2.40;;;;;;;25.84;39.95;100262.00;5049610;28;20480;-82
2021/07/29 08:36:41;;;;;;;9.95;2.80;;;;;;;24.87;42.44;100264.50;5013073;28;20471;-79
2021/07/29 08:39:08;;;;;;;8.10;2.67;;;;;;;24.21;44.62;100272.63;5009535;28;20061;-84
2021/07/29 08:41:36;;;;;;;10.30;3.80;;;;;;;23.79;45.50;100276.00;5031281;28;20078;-83
2021/07/29 08:44:03;;;;;;;9.23;3.92;;;;;;;23.85;45.84;100269.88;5014381;28;20378;-79
2021/07/29 08:46:34;;;;;;;11.35;2.75;;;;;;;23.55;45.72;100271.66;5030545;28;20041;-82
2021/07/29 08:49:02;;;;;;;6.15;2.45;;;;;;;23.22;47.02;100274.66;5026520;28;20480;-77
2021/07/29 08:51:30;;;;;;;6.10;2.53;;;;;;;23.86;46.22;100282.28;5049581;28;20099;-81
2021/07/29 08:53:58;;;;;;;6.20;2.70;;;;;;;24.76;44.76;100272.03;4998087;28;20193;-79
2021/07/29 08:56:25;;;;;;;6.45;2.65;;;;;;;25.38;42.96;100269.75;5032554;28;20147;-80
2021/07/29 08:58:53;;;;;;;5.55;2.47;;;;;;;26.02;41.52;100264.16;5049518;28;20511;-81
2021/07/29 09:01:20;;;;;;;6.43;2.85;;;;;;;25.92;41.36;100274.50;5032062;28;20136;-79
2021/07/29 09:03:52;;;;;;;8.00;2.60;;;;;;;25.61;42.25;100267.63;5049566;28;20137;-80
2021/07/29 09:06:20;;;;;;;7.88;2.88;;;;;;;25.50;42.84;100268.19;5024968;28;20105;-80
2021/07/29 09:08:55;;;;;;;5.00;2.55;;;;;;;25.12;43.76;100271.19;5019562;28;20521;-87
2021/07/29 09:11:33;;;;;;;7.90;2.72;;;;;;;25.02;43.23;100276.88;5031756;28;20049;-79
2021/07/29 09:14:12;;;;;;;6.00;2.67;;;;;;;25.17;42.43;100273.28;5050274;28;20048;-82
2021/07/29 09:16:56;;;;;;;4.78;2.38;;;;;;;24.88;43.59;100274.25;5028369;28;20045;-81
2021/07/29 09:19:41;;;;;;;10.35;4.10;;;;;;;25.15;42.50;100268.09;5050387;28;20122;-81
2021/07/29 09:22:11;;;;;;;10.82;3.28;;;;;;;24.82;43.37;100270.47;5026622;28;20045;-82
2021/07/29 09:25:00;;;;;;;12.05;2.90;;;;;;;25.76;41.38;100270.25;5018536;28;20136;-80
2021/07/29 09:27:37;;;;;;;5.43;2.22;;;;;;;26.17;40.18;100267.56;5049014;28;20075;-80
2021/07/29 09:30:24;;;;;;;5.65;2.70;;;;;;;26.28;39.89;100263.47;5035569;28;20045;-79
2021/07/29 09:33:05;;;;;;;9.90;2.83;;;;;;;25.53;41.85;100267.78;5030627;28;20109;-82
2021/07/29 09:35:39;;;;;;;5.25;2.47;;;;;;;24.93;43.12;100272.63;5017670;28;20059;-80
2021/07/29 09:38:09;;;;;;;7.28;2.95;;;;;;;24.53;44.55;100266.00;5005257;28;20049;-78
2021/07/29 09:40:44;;;;;;;6.72;2.67;;;;;;;24.73;43.38;100274.31;5024357;28;20570;-80
2021/07/29 09:43:17;;;;;;;24.83;4.10;;;;;;;25.34;43.25;100253.13;5018592;28;20374;-80
2021/07/29 09:45:46;;;;;;;6.35;3.00;;;;;;;25.38;43.24;100253.56;5016689;28;20156;-80
2021/07/29 09:48:14;;;;;;;8.80;2.90;;;;;;;25.53;41.72;100240.81;5024726;28;20061;-82
2021/07/29 09:50:42;;;;;;;10.55;3.03;;;;;;;25.97;40.44;100245.88;5017680;28;20051;-79
2021/07/29 09:53:09;;;;;;;8.90;2.90;;;;;;;26.17;40.71;100240.59;5045047;28;20073;-90
2021/07/29 09:55:37;;;;;;;7.35;3.25;;;;;;;26.44;40.11;100240.72;5008358;28;20049;-79
2021/07/29 09:58:04;;;;;;;5.85;3.35;;;;;;;25.80;42.72;100241.03;5028884;28;20130;-81
2021/07/29 10:00:37;;;;;;;13.48;4.35;;;;;;;24.53;44.95;100249.84;5032404;28;20536;-79
2021/07/29 10:03:07;;;;;;;11.45;3.58;;;;;;;23.81;47.31;100255.97;5015871;28;20098;-79
2021/07/29 10:05:50;;;;;;;7.88;2.67;;;;;;;23.98;46.27;100251.22;5044496;28;20145;-78
2021/07/29 10:08:36;;;;;;;12.07;3.65;;;;;;;23.78;46.38;100260.91;5027763;28;20053;-80
2021/07/29 10:11:08;;;;;;;9.45;3.20;;;;;;;23.92;46.47;100265.44;5032508;28;20580;-79
2021/07/29 10:13:37;;;;;;;8.30;3.25;;;;;;;23.75;46.74;100265.59;5007696;28;20049;-79
2021/07/29 10:16:05;;;;;;;6.53;2.88;;;;;;;23.31;47.99;100259.31;5012884;28;20459;-79
2021/07/29 10:18:51;;;;;;;10.32;3.42;;;;;;;23.02;48.87;100262.75;5005632;28;20140;-78
2021/07/29 10:21:31;;;;;;;8.55;3.33;;;;;;;22.67;49.85;100262.28;5022973;28;20057;-80
2021/07/29 10:24:00;;;;;;;12.45;3.08;;;;;;;22.71;49.76;100266.28;5028410;28;20239;-77
2021/07/29 10:26:32;;;;;;;6.97;2.90;;;;;;;23.30;47.40;100255.78;5030534;28;20076;-79
2021/07/29 10:29:18;;;;;;;7.93;2.92;;;;;;;23.58;46.87;100258.69;5020733;28;20053;-80
2021/07/29 10:31:50;;;;;;;9.13;3.80;;;;;;;23.48;46.64;100258.13;5025737;28;20064;-79
2021/07/29 10:34:24;;;;;;;6.25;3.35;;;;;;;23.29;47.48;100251.44;4996323;28;20045;-79
2021/07/29 10:36:51;;;;;;;10.52;2.92;;;;;;;22.82;48.84;100251.63;5022011;28;20064;-78
2021/07/29 10:39:18;;;;;;;10.38;2.85;;;;;;;23.08;47.59;100260.16;5011798;28;20060;-82
2021/07/29 10:41:48;;;;;;;8.35;3.60;;;;;;;22.98;47.64;100259.59;4988609;28;20113;-79
2021/07/29 10:44:37;;;;;;;6.18;2.90;;;;;;;23.19;45.88;100265.13;5045514;28;20049;-78
2021/07/29 10:47:07;;;;;;;6.72;2.90;;;;;;;23.40;44.88;100256.34;5023953;28;20076;-83
2021/07/29 10:49:44;;;;;;;11.50;3.35;;;;;;;23.79;43.82;100259.88;4997138;28;20103;-83
2021/07/29 10:52:12;;;;;;;4.60;3.20;;;;;;;24.39;42.87;100258.81;5043209;28;20052;-80
2021/07/29 10:54:43;;;;;;;11.57;2.78;;;;;;;24.69;43.08;100255.00;5050129;28;20053;-79
2021/07/29 10:57:12;;;;;;;9.98;2.95;;;;;;;24.80;42.61;100260.91;5007853;28;20423;-77
2021/07/29 10:59:39;;;;;;;10.88;3.15;;;;;;;24.92;42.46;100248.59;5027764;28;20139;-80
2021/07/29 11:02:10;;;;;;;10.55;3.28;;;;;;;24.20;43.07;100252.13;5011007;28;20496;-81
2021/07/29 11:04:55;;;;;;;11.27;2.53;;;;;;;24.87;42.66;100245.66;5014481;28;20132;-80
2021/07/29 11:07:22;;;;;;;4.87;2.27;;;;;;;25.30;41.78;100248.31;4990073;28;20109;-79
2021/07/29 11:10:06;;;;;;;11.40;2.92;;;;;;;25.29;42.37;100258.28;5049844;28;20091;-82
2021/07/29 11:12:35;;;;;;;11.40;3.13;;;;;;;25.71;40.39;100253.78;5028263;28;20049;-85
2021/07/29 11:15:06;;;;;;;14.38;5.22;;;;;;;26.09;39.19;100248.84;5028813;28;20080;-79
2021/07/29 11:17:34;;;;;;;9.00;3.40;;;;;;;25.13;41.42;100242.41;5026442;28;20057;-81
2021/07/29 11:20:01;;;;;;;9.68;2.65;;;;;;;25.56;40.51;100247.69;5006188;28;20390;-77
2021/07/29 11:22:29;;;;;;;7.75;2.85;;;;;;;26.30;39.66;100250.63;5046008;28;20067;-78
2021/07/29 11:25:06;;;;;;;7.57;2.85;;;;;;;25.54;39.46;100247.91;4996393;28;20497;-80
2021/07/29 11:27:34;;;;;;;8.35;2.67;;;;;;;25.76;40.32;100246.00;5000980;28;20061;-81
2021/07/29 11:30:02;;;;;;;9.43;2.55;;;;;;;26.31;38.38;100246.03;5029080;28;20131;-78
2021/07/29 11:32:40;;;;;;;9.00;2.58;;;;;;;26.07;38.97;100242.81;5008982;28;20079;-81
2021/07/29 11:35:16;;;;;;;6.10;2.70;;;;;;;26.19;38.74;100243.91;5030375;28;20060;-80